createdAt,value
2018-02-03T00:02:00.236Z,1.10
2018-02-03T00:04:28.218Z,1.20
2018-02-03T00:06:56.852Z,1.10
2018-02-03T00:09:25.266Z,1.10
2018-02-03T00:11:53.825Z,1.10
2018-02-03T00:14:21.602Z,1.10
2018-02-03T00:16:49.359Z,1.10
2018-02-03T00:19:17.319Z,1.10
2018-02-03T00:21:45.195Z,1.10
2018-02-03T00:24:13.225Z,1.10
2018-02-03T00:26:41.029Z,1.10
2018-02-03T00:29:08.913Z,1.10
2018-02-03T00:31:36.769Z,1.10
2018-02-03T00:34:04.730Z,1.10
2018-02-03T00:36:32.485Z,1.10
2018-02-03T00:39:01.467Z,1.10
2018-02-03T00:41:29.542Z,1.10
2018-02-03T00:43:58.094Z,1.10
2018-02-03T00:46:25.852Z,1.10
2018-02-03T00:48:54.591Z,1.10
2018-02-03T00:51:22.349Z,1.10
2018-02-03T00:53:50.105Z,1.10
2018-02-03T00:56:17.884Z,1.20
2018-02-03T00:58:45.755Z,1.20
2018-02-03T01:01:13.510Z,1.10
2018-02-03T01:03:41.564Z,1.20
2018-02-03T01:06:09.434Z,1.10
2018-02-03T01:08:37.316Z,1.10
2018-02-03T01:11:05.366Z,1.10
2018-02-03T01:13:33.241Z,1.10
2018-02-03T01:16:01.105Z,1.20
2018-02-03T01:18:29.173Z,1.10
2018-02-03T01:20:56.955Z,1.10
2018-02-03T01:23:24.745Z,1.10
2018-02-03T01:25:52.580Z,1.10
2018-02-03T01:28:20.360Z,1.10
2018-02-03T01:30:48.299Z,1.10
2018-02-03T01:33:16.092Z,1.10
2018-02-03T01:35:43.941Z,1.10
2018-02-03T01:38:11.899Z,1.10
2018-02-03T01:40:39.972Z,1.10
2018-02-03T01:43:07.762Z,1.20
2018-02-03T01:45:35.622Z,1.10
2018-02-03T01:48:03.582Z,1.10
2018-02-03T01:50:31.456Z,1.20
2018-02-03T01:52:59.417Z,1.10
2018-02-03T01:55:27.248Z,1.10
2018-02-03T01:57:55.808Z,1.20
2018-02-03T02:00:24.292Z,1.10
2018-02-03T02:02:53.225Z,1.10
2018-02-03T02:05:21.073Z,1.10
2018-02-03T02:07:49.074Z,1.10
2018-02-03T02:10:16.940Z,1.10
2018-02-03T02:12:44.743Z,1.10
2018-02-03T02:15:13.334Z,1.10
2018-02-03T02:17:42.078Z,1.10
2018-02-03T02:20:09.912Z,1.10
2018-02-03T02:22:37.998Z,1.10
2018-02-03T02:25:05.743Z,1.00
2018-02-03T02:27:33.541Z,1.10
2018-02-03T02:30:01.443Z,1.10
2018-02-03T02:32:29.992Z,1.10
2018-02-03T02:34:58.280Z,1.00
2018-02-03T02:37:26.955Z,1.00
2018-02-03T02:39:54.733Z,1.10
2018-02-03T02:42:22.484Z,1.10
2018-02-03T02:44:50.281Z,1.10
2018-02-03T02:47:18.796Z,1.00
2018-02-03T02:49:46.678Z,1.00
2018-02-03T02:52:14.403Z,1.00
2018-02-03T02:54:42.409Z,1.00
2018-02-03T02:57:10.206Z,1.00
2018-02-03T02:59:37.942Z,0.90
2018-02-03T03:02:05.764Z,1.00
2018-02-03T03:04:34.336Z,0.90
2018-02-03T03:07:02.831Z,0.90
2018-02-03T03:09:31.405Z,0.90
2018-02-03T03:11:59.955Z,0.90
2018-02-03T03:14:27.897Z,0.90
2018-02-03T03:16:55.768Z,0.90
2018-02-03T03:19:23.543Z,0.90
2018-02-03T03:21:51.314Z,0.90
2018-02-03T03:24:19.389Z,0.90
2018-02-03T03:26:47.247Z,0.90
2018-02-03T03:29:15.112Z,0.90
2018-02-03T03:31:42.866Z,0.80
2018-02-03T03:34:10.831Z,0.80
2018-02-03T03:36:38.585Z,0.80
2018-02-03T03:39:06.333Z,0.80
2018-02-03T03:41:34.331Z,0.70
2018-02-03T03:44:02.215Z,0.70
2018-02-03T03:46:29.964Z,0.70
2018-02-03T03:48:57.735Z,0.60
2018-02-03T03:51:25.508Z,0.60
2018-02-03T03:53:53.255Z,0.70
2018-02-03T03:56:21.175Z,0.70
2018-02-03T03:58:49.713Z,0.70
2018-02-03T04:01:17.479Z,0.60
2018-02-03T04:03:45.433Z,0.70
2018-02-03T04:06:13.416Z,0.70
2018-02-03T04:08:41.593Z,0.70
2018-02-03T04:11:09.543Z,0.70
2018-02-03T04:13:37.420Z,0.70
2018-02-03T04:16:06.012Z,0.70
2018-02-03T04:18:33.811Z,0.70
2018-02-03T04:21:02.465Z,0.70
2018-02-03T04:23:30.252Z,0.70
2018-02-03T04:25:58.931Z,0.70
2018-02-03T04:28:26.774Z,0.70
2018-02-03T04:30:54.641Z,0.70
2018-02-03T04:33:22.607Z,0.70
2018-02-03T04:35:50.370Z,0.60
2018-02-03T04:38:18.242Z,0.60
2018-02-03T04:40:46.307Z,0.60
2018-02-03T04:43:14.260Z,0.60
2018-02-03T04:45:42.559Z,0.60
2018-02-03T04:48:10.297Z,0.60
2018-02-03T04:50:38.376Z,0.60
2018-02-03T04:53:06.151Z,0.60
2018-02-03T04:55:33.998Z,0.50
2018-02-03T04:58:02.596Z,0.50
2018-02-03T05:00:30.366Z,0.50
2018-02-03T05:02:58.239Z,0.50
2018-02-03T05:05:26.290Z,0.60
2018-02-03T05:07:54.266Z,0.50
2018-02-03T05:10:22.246Z,0.50
2018-02-03T05:12:49.999Z,0.50
2018-02-03T05:15:17.858Z,0.50
2018-02-03T05:17:45.840Z,0.50
2018-02-03T05:20:13.757Z,0.50
2018-02-03T05:22:42.070Z,0.50
2018-02-03T05:25:09.968Z,0.50
2018-02-03T05:27:37.933Z,0.50
2018-02-03T05:30:05.701Z,0.50
2018-02-03T05:32:33.551Z,0.50
2018-02-03T05:35:02.422Z,0.50
2018-02-03T05:37:30.372Z,0.50
2018-02-03T05:39:58.354Z,0.40
2018-02-03T05:42:26.354Z,0.40
2018-02-03T05:45:04.150Z,0.40
2018-02-03T05:47:32.016Z,0.40
2018-02-03T05:49:59.768Z,0.30
2018-02-03T05:52:27.818Z,0.30
2018-02-03T05:54:55.716Z,0.40
2018-02-03T05:57:23.479Z,0.40
2018-02-03T05:59:51.224Z,0.30
2018-02-03T06:02:19.026Z,0.30
2018-02-03T06:04:46.855Z,0.30
2018-02-03T06:07:14.645Z,0.30
2018-02-03T06:09:42.501Z,0.30
2018-02-03T06:12:10.484Z,0.30
2018-02-03T06:14:38.340Z,0.30
2018-02-03T06:17:06.207Z,0.30
2018-02-03T06:19:34.078Z,0.30
2018-02-03T06:22:02.324Z,0.30
2018-02-03T06:24:30.208Z,0.30
2018-02-03T06:26:58.064Z,0.30
2018-02-03T06:29:26.567Z,0.30
2018-02-03T06:31:54.427Z,0.30
2018-02-03T06:34:22.185Z,0.30
2018-02-03T06:36:50.719Z,0.30
2018-02-03T06:39:18.620Z,0.30
2018-02-03T06:41:47.324Z,0.30
2018-02-03T06:44:15.171Z,0.30
2018-02-03T06:46:43.061Z,0.30
2018-02-03T06:49:11.133Z,0.20
2018-02-03T06:51:39.000Z,0.20
2018-02-03T06:54:06.738Z,0.20
2018-02-03T06:56:34.525Z,0.30
2018-02-03T06:59:02.391Z,0.20
2018-02-03T07:01:30.245Z,0.20
2018-02-03T07:03:58.203Z,0.20
2018-02-03T07:06:26.205Z,0.30
2018-02-03T07:08:53.951Z,0.30
2018-02-03T07:11:21.908Z,0.30
2018-02-03T07:13:50.008Z,0.40
2018-02-03T07:16:17.944Z,0.40
2018-02-03T07:18:46.483Z,0.40
2018-02-03T07:21:15.111Z,0.40
2018-02-03T07:23:43.183Z,0.40
2018-02-03T07:26:11.027Z,0.40
2018-02-03T07:28:39.036Z,0.50
2018-02-03T07:31:06.984Z,0.50
2018-02-03T07:33:34.746Z,0.50
2018-02-03T07:36:02.722Z,0.60
2018-02-03T07:38:30.490Z,0.60
2018-02-03T07:40:58.800Z,0.60
2018-02-03T07:43:27.547Z,0.70
2018-02-03T07:45:55.619Z,0.70
2018-02-03T07:48:23.610Z,0.70
2018-02-03T07:50:51.759Z,0.70
2018-02-03T07:53:19.717Z,0.80
2018-02-03T07:55:47.533Z,0.80
2018-02-03T07:58:15.582Z,0.80
2018-02-03T08:00:43.577Z,0.80
2018-02-03T08:03:12.507Z,0.90
2018-02-03T08:05:40.530Z,0.90
2018-02-03T08:08:08.361Z,0.90
2018-02-03T08:10:36.458Z,0.90
2018-02-03T08:13:04.732Z,0.90
2018-02-03T08:15:32.697Z,0.90
2018-02-03T08:18:00.872Z,0.90
2018-02-03T08:20:28.815Z,0.90
2018-02-03T08:22:56.912Z,1.00
2018-02-03T08:25:24.773Z,0.90
2018-02-03T08:27:52.645Z,0.90
2018-02-03T08:30:20.626Z,0.90
2018-02-03T08:32:48.630Z,0.90
2018-02-03T08:35:16.668Z,1.00
2018-02-03T08:37:44.546Z,1.00
2018-02-03T08:40:12.433Z,1.00
2018-02-03T08:42:40.620Z,1.00
2018-02-03T08:45:08.712Z,1.10
2018-02-03T08:47:36.843Z,1.10
2018-02-03T08:50:05.447Z,1.10
2018-02-03T08:52:33.339Z,1.10
2018-02-03T08:55:01.222Z,1.20
2018-02-03T08:57:29.213Z,1.20
2018-02-03T08:59:58.079Z,1.30
2018-02-03T09:02:26.449Z,1.20
2018-02-03T09:04:54.721Z,1.20
2018-02-03T09:07:22.797Z,1.20
2018-02-03T09:09:50.960Z,1.30
2018-02-03T09:12:19.099Z,1.30
2018-02-03T09:14:46.962Z,1.30
2018-02-03T09:17:14.896Z,1.30
2018-02-03T09:19:42.912Z,1.40
2018-02-03T09:22:11.123Z,1.40
2018-02-03T09:24:39.289Z,1.40
2018-02-03T09:27:07.234Z,1.40
2018-02-03T09:29:35.226Z,1.40
2018-02-03T09:32:03.904Z,1.50
2018-02-03T09:34:31.794Z,1.40
2018-02-03T09:36:59.768Z,1.60
2018-02-03T09:39:27.711Z,1.60
2018-02-03T09:41:55.497Z,1.60
2018-02-03T09:44:23.453Z,1.60
2018-02-03T09:46:51.406Z,1.60
2018-02-03T09:49:19.275Z,1.60
2018-02-03T09:51:47.451Z,1.50
2018-02-03T09:54:15.522Z,1.40
2018-02-03T09:56:43.976Z,1.50
2018-02-03T09:59:12.142Z,1.40
2018-02-03T10:01:40.193Z,1.30
2018-02-03T10:04:08.833Z,1.30
2018-02-03T10:06:36.716Z,1.30
2018-02-03T10:09:04.672Z,1.40
2018-02-03T10:11:32.909Z,1.30
2018-02-03T10:14:00.730Z,1.20
2018-02-03T10:16:29.737Z,1.10
2018-02-03T10:18:57.562Z,1.00
2018-02-03T10:21:25.445Z,1.10
2018-02-03T10:23:53.418Z,1.10
2018-02-03T10:26:21.393Z,1.10
2018-02-03T10:28:50.072Z,1.10
2018-02-03T10:31:18.032Z,1.10
2018-02-03T10:33:45.820Z,1.10
2018-02-03T10:36:13.980Z,1.10
2018-02-03T10:38:41.931Z,1.10
2018-02-03T10:41:09.898Z,1.00
2018-02-03T10:43:37.864Z,1.00
2018-02-03T10:46:05.939Z,0.90
2018-02-03T10:48:33.799Z,1.00
2018-02-03T10:51:01.771Z,1.00
2018-02-03T10:53:30.982Z,1.00
2018-02-03T10:56:00.217Z,1.10
2018-02-03T10:58:28.116Z,1.00
2018-02-03T11:01:03.502Z,1.20
2018-02-03T11:03:33.250Z,1.20
2018-02-03T11:06:01.669Z,1.10
2018-02-03T11:08:29.815Z,1.10
2018-02-03T11:10:58.371Z,1.10
2018-02-03T11:13:26.929Z,1.10
2018-02-03T11:15:54.909Z,1.00
2018-02-03T11:18:22.946Z,1.00
2018-02-03T11:20:50.942Z,1.00
2018-02-03T11:23:18.881Z,1.00
2018-02-03T11:25:46.680Z,1.00
2018-02-03T11:28:14.741Z,1.10
2018-02-03T11:30:43.096Z,1.20
2018-02-03T11:33:11.371Z,1.20
2018-02-03T11:35:39.465Z,1.00
2018-02-03T11:38:07.330Z,0.90
2018-02-03T11:40:37.022Z,0.90
2018-02-03T11:43:08.505Z,1.00
2018-02-03T11:45:36.439Z,1.00
2018-02-03T11:48:04.322Z,1.10
2018-02-03T11:50:32.305Z,1.20
2018-02-03T11:53:00.149Z,1.20
2018-02-03T11:55:28.007Z,1.20
2018-02-03T11:57:55.895Z,1.10
2018-02-03T12:00:23.864Z,1.10
2018-02-03T12:02:52.388Z,1.10
2018-02-03T12:05:20.190Z,1.10
2018-02-03T12:07:48.156Z,1.20
2018-02-03T12:10:16.022Z,1.20
2018-02-03T12:12:43.885Z,1.30
2018-02-03T12:15:12.121Z,1.40
2018-02-03T12:17:41.388Z,1.70
2018-02-03T12:20:09.445Z,1.70
2018-02-03T12:22:40.494Z,2.00
2018-02-03T12:25:09.465Z,2.40
2018-02-03T12:27:37.468Z,2.40
2018-02-03T12:30:05.540Z,2.50
2018-02-03T12:32:33.394Z,2.60
2018-02-03T12:35:02.007Z,2.70
2018-02-03T12:37:30.027Z,2.80
2018-02-03T12:39:57.993Z,2.70
2018-02-03T12:42:25.815Z,2.80
2018-02-03T12:44:53.829Z,2.90
2018-02-03T12:47:21.720Z,2.80
2018-02-03T12:49:49.627Z,2.80
2018-02-03T12:52:17.532Z,2.60
2018-02-03T12:54:46.359Z,2.50
2018-02-03T12:57:15.415Z,2.80
2018-02-03T12:59:43.385Z,2.70
2018-02-03T13:02:11.285Z,2.70
2018-02-03T13:04:39.241Z,2.60
2018-02-03T13:07:07.244Z,2.70
2018-02-03T13:09:37.001Z,2.80
2018-02-03T13:12:04.884Z,2.70
2018-02-03T13:14:32.851Z,2.50
2018-02-03T13:17:00.936Z,2.80
2018-02-03T13:19:29.721Z,2.60
2018-02-03T13:21:59.217Z,2.90
2018-02-03T13:24:27.189Z,2.90
2018-02-03T13:26:55.170Z,3.10
2018-02-03T13:29:23.885Z,3.00
2018-02-03T13:31:51.918Z,3.00
2018-02-03T13:34:21.395Z,2.90
2018-02-03T13:36:49.290Z,2.90
2018-02-03T13:39:17.203Z,3.00
2018-02-03T13:41:45.028Z,2.90
2018-02-03T13:44:12.924Z,2.80
2018-02-03T13:46:41.752Z,2.60
2018-02-03T13:49:09.755Z,2.60
2018-02-03T13:51:38.510Z,2.60
2018-02-03T13:54:06.414Z,2.60
2018-02-03T13:56:36.289Z,2.60
2018-02-03T13:59:04.257Z,2.70
2018-02-03T14:01:32.252Z,2.60
2018-02-03T14:04:00.122Z,2.50
2018-02-03T14:06:27.917Z,2.30
2018-02-03T14:08:56.780Z,2.00
2018-02-03T14:11:25.589Z,1.90
2018-02-03T14:13:54.426Z,1.60
2018-02-03T14:16:22.308Z,1.60
2018-02-03T14:18:50.287Z,1.40
2018-02-03T14:21:18.992Z,1.10
2018-02-03T14:23:53.468Z,1.20
2018-02-03T14:26:22.132Z,1.20
2018-02-03T14:28:50.065Z,1.30
2018-02-03T14:31:18.734Z,1.50
2018-02-03T14:33:46.569Z,1.50
2018-02-03T14:36:14.353Z,1.60
2018-02-03T14:38:42.311Z,1.60
2018-02-03T14:41:10.260Z,1.60
2018-02-03T14:43:38.374Z,1.70
2018-02-03T14:46:06.231Z,1.60
2018-02-03T14:48:34.079Z,1.70
2018-02-03T14:51:01.943Z,1.70
2018-02-03T14:53:29.859Z,1.60
2018-02-03T14:55:58.368Z,1.80
2018-02-03T14:58:26.260Z,1.80
2018-02-03T15:00:54.123Z,1.80
2018-02-03T15:03:22.119Z,1.80
2018-02-03T15:05:49.964Z,1.90
2018-02-03T15:08:17.852Z,1.70
2018-02-03T15:10:45.699Z,1.70
2018-02-03T15:13:13.765Z,1.70
2018-02-03T15:15:41.647Z,1.70
2018-02-03T15:18:09.713Z,1.60
2018-02-03T15:20:37.686Z,1.50
2018-02-03T15:23:05.842Z,1.50
2018-02-03T15:25:33.728Z,1.40
2018-02-03T15:28:01.681Z,1.40
2018-02-03T15:30:29.564Z,1.40
2018-02-03T15:32:57.422Z,1.30
2018-02-03T15:35:25.279Z,1.30
2018-02-03T15:37:53.283Z,1.20
2018-02-03T15:40:21.133Z,1.20
2018-02-03T15:42:49.109Z,1.10
2018-02-03T15:45:17.271Z,1.10
2018-02-03T15:47:45.353Z,1.20
2018-02-03T15:50:13.223Z,1.10
2018-02-03T15:52:41.077Z,1.10
2018-02-03T15:55:08.975Z,1.00
2018-02-03T15:57:38.066Z,0.90
2018-02-03T16:00:06.626Z,0.80
2018-02-03T16:02:34.971Z,0.80
2018-02-03T16:05:02.886Z,0.80
2018-02-03T16:07:30.748Z,0.70
2018-02-03T16:09:58.698Z,0.60
2018-02-03T16:12:26.755Z,0.60
2018-02-03T16:14:54.744Z,0.70
2018-02-03T16:17:22.614Z,0.60
2018-02-03T16:19:50.466Z,0.70
2018-02-03T16:22:18.344Z,0.70
2018-02-03T16:24:46.289Z,0.70
2018-02-03T16:27:14.718Z,0.70
2018-02-03T16:29:43.670Z,0.70
2018-02-03T16:32:11.755Z,0.70
2018-02-03T16:34:40.020Z,0.70
2018-02-03T16:37:08.696Z,0.70
2018-02-03T16:39:36.868Z,0.70
2018-02-03T16:42:04.963Z,0.70
2018-02-03T16:44:32.829Z,0.70
2018-02-03T16:47:00.720Z,0.70
2018-02-03T16:49:29.483Z,0.70
2018-02-03T16:51:57.436Z,0.60
2018-02-03T16:54:26.248Z,0.60
2018-02-03T16:56:54.111Z,0.60
2018-02-03T16:59:21.933Z,0.60
2018-02-03T17:01:49.798Z,0.60
2018-02-03T17:04:17.704Z,0.60
2018-02-03T17:06:47.012Z,0.50
2018-02-03T17:09:14.870Z,0.50
2018-02-03T17:11:42.729Z,0.50
2018-02-03T17:14:10.632Z,0.60
2018-02-03T17:16:39.309Z,0.60
2018-02-03T17:19:07.981Z,0.60
2018-02-03T17:21:35.889Z,0.60
2018-02-03T17:24:04.638Z,0.60
2018-02-03T17:26:32.418Z,0.60
2018-02-03T17:29:00.993Z,0.60
2018-02-03T17:31:28.957Z,0.60
2018-02-03T17:33:56.994Z,0.60
2018-02-03T17:36:31.258Z,0.70
2018-02-03T17:39:11.877Z,0.70
2018-02-03T17:41:39.794Z,0.70
2018-02-03T17:44:08.425Z,0.70
2018-02-03T17:46:42.046Z,0.70
2018-02-03T17:49:09.938Z,0.70
2018-02-03T17:51:38.825Z,0.80
2018-02-03T17:54:07.725Z,0.90
2018-02-03T17:56:42.299Z,0.90
2018-02-03T17:59:10.268Z,0.90
2018-02-03T18:01:38.138Z,0.90
2018-02-03T18:04:06.024Z,0.90
2018-02-03T18:06:39.608Z,0.90
2018-02-03T18:09:07.748Z,0.90
2018-02-03T18:11:35.641Z,0.90
2018-02-03T18:14:03.531Z,0.90
2018-02-03T18:16:33.042Z,0.90
2018-02-03T18:19:00.984Z,0.90
2018-02-03T18:21:28.768Z,0.90
2018-02-03T18:23:57.022Z,0.90
2018-02-03T18:26:24.992Z,0.80
2018-02-03T18:28:52.995Z,0.90
2018-02-03T18:31:20.927Z,0.90
2018-02-03T18:33:48.821Z,0.90
2018-02-03T18:36:16.763Z,1.00
2018-02-03T18:38:44.658Z,1.00
2018-02-03T18:41:14.115Z,1.00
2018-02-03T18:43:42.210Z,1.00
2018-02-03T18:46:10.231Z,1.00
2018-02-03T18:48:39.180Z,1.00
2018-02-03T18:51:07.234Z,1.00
2018-02-03T18:53:35.352Z,1.00
2018-02-03T18:56:04.305Z,1.00
2018-02-03T18:58:32.194Z,1.00
2018-02-03T19:01:01.446Z,1.10
2018-02-03T19:03:29.451Z,1.00
2018-02-03T19:05:57.450Z,1.00
2018-02-03T19:08:26.290Z,1.00
2018-02-03T19:10:55.214Z,1.00
2018-02-03T19:13:24.114Z,1.00
2018-02-03T19:15:52.863Z,1.10
2018-02-03T19:18:20.954Z,1.10
2018-02-03T19:20:48.827Z,1.00
2018-02-03T19:23:16.766Z,1.00
2018-02-03T19:25:44.735Z,1.00
2018-02-03T19:28:12.728Z,1.00
2018-02-03T19:30:41.299Z,1.00
2018-02-03T19:33:09.278Z,1.00
2018-02-03T19:35:37.372Z,1.00
2018-02-03T19:38:05.296Z,1.00
2018-02-03T19:40:33.370Z,1.00
2018-02-03T19:43:01.372Z,0.90
2018-02-03T19:45:29.712Z,0.90
2018-02-03T19:47:58.345Z,0.90
2018-02-03T19:50:27.193Z,0.90
2018-02-03T19:52:55.223Z,0.90
2018-02-03T19:55:23.162Z,0.90
2018-02-03T19:57:51.912Z,1.00
2018-02-03T20:00:20.147Z,0.90
2018-02-03T20:02:48.896Z,0.90
2018-02-03T20:05:16.772Z,0.80
2018-02-03T20:07:44.749Z,0.90
2018-02-03T20:10:13.500Z,0.90
2018-02-03T20:12:42.347Z,0.90
2018-02-03T20:15:10.457Z,0.90
2018-02-03T20:17:39.514Z,0.90
2018-02-03T20:20:10.445Z,0.90
2018-02-03T20:22:40.177Z,0.90
2018-02-03T20:25:09.231Z,0.90
2018-02-03T20:27:39.414Z,0.90
2018-02-03T20:30:08.045Z,1.00
2018-02-03T20:32:38.136Z,1.00
2018-02-03T20:35:07.497Z,1.00
2018-02-03T20:37:38.801Z,1.00
2018-02-03T20:40:08.145Z,1.00
2018-02-03T20:42:36.787Z,1.00
2018-02-03T20:45:05.687Z,1.00
2018-02-03T20:47:37.766Z,1.00
2018-02-03T20:50:06.962Z,1.00
2018-02-03T20:52:36.121Z,1.00
2018-02-03T20:55:06.235Z,1.00
2018-02-03T20:57:37.665Z,1.00
2018-02-03T21:00:09.810Z,1.00
2018-02-03T21:02:38.735Z,1.00
2018-02-03T21:05:09.873Z,1.00
2018-02-03T21:07:39.396Z,1.00
2018-02-03T21:10:07.291Z,1.00
2018-02-03T21:12:36.460Z,1.00
2018-02-03T21:15:04.711Z,1.00
2018-02-03T21:17:32.515Z,1.00
2018-02-03T21:20:00.415Z,1.00
2018-02-03T21:22:28.167Z,0.90
2018-02-03T21:24:57.625Z,1.00
2018-02-03T21:27:25.480Z,0.90
2018-02-03T21:29:53.425Z,0.90
2018-02-03T21:32:21.217Z,1.00
2018-02-03T21:34:49.105Z,1.00
2018-02-03T21:37:17.047Z,1.00
2018-02-03T21:39:44.925Z,1.00
2018-02-03T21:42:12.987Z,0.90
2018-02-03T21:44:40.954Z,0.90
2018-02-03T21:47:08.750Z,0.90
2018-02-03T21:49:36.504Z,0.90
2018-02-03T21:52:04.277Z,1.00
2018-02-03T21:54:32.129Z,1.00
2018-02-03T21:57:00.083Z,0.90
2018-02-03T21:59:27.948Z,0.90
2018-02-03T22:01:55.941Z,1.00
2018-02-03T22:04:26.318Z,1.00
2018-02-03T22:06:54.785Z,1.00
2018-02-03T22:09:23.615Z,1.10
2018-02-03T22:11:51.495Z,1.10
2018-02-03T22:14:19.374Z,1.00
2018-02-03T22:16:47.330Z,1.00
2018-02-03T22:19:15.222Z,1.00
2018-02-03T22:21:43.255Z,1.00
2018-02-03T22:24:11.217Z,1.00
2018-02-03T22:26:39.087Z,1.00
2018-02-03T22:29:06.978Z,1.00
2018-02-03T22:31:34.836Z,0.90
2018-02-03T22:34:02.645Z,0.90
2018-02-03T22:36:31.458Z,0.90
2018-02-03T22:38:59.257Z,0.90
2018-02-03T22:41:27.308Z,0.90
2018-02-03T22:43:55.403Z,0.90
2018-02-03T22:46:23.381Z,0.80
2018-02-03T22:48:51.425Z,0.80
2018-02-03T22:51:19.409Z,0.80
2018-02-03T22:53:47.377Z,0.80
2018-02-03T22:56:15.256Z,0.70
2018-02-03T22:58:43.022Z,0.80
2018-02-03T23:01:17.741Z,0.80
2018-02-03T23:03:45.680Z,0.80
2018-02-03T23:06:13.780Z,0.80
2018-02-03T23:08:41.954Z,0.80
2018-02-03T23:11:10.407Z,0.80
2018-02-03T23:13:38.378Z,0.70
2018-02-03T23:16:06.858Z,0.70
2018-02-03T23:18:34.929Z,0.70
2018-02-03T23:21:03.226Z,0.70
2018-02-03T23:23:31.170Z,0.60
2018-02-03T23:25:59.066Z,0.70
2018-02-03T23:28:28.140Z,0.60
2018-02-03T23:30:56.338Z,0.60
2018-02-03T23:33:24.281Z,0.60
2018-02-03T23:35:52.552Z,0.60
2018-02-03T23:38:20.561Z,0.60
2018-02-03T23:40:48.346Z,0.60
2018-02-03T23:43:16.916Z,0.60
2018-02-03T23:45:45.662Z,0.70
2018-02-03T23:48:13.641Z,0.60
2018-02-03T23:50:42.410Z,0.60
2018-02-03T23:53:10.373Z,0.60
2018-02-03T23:55:38.348Z,0.60
2018-02-03T23:58:06.448Z,0.60
